sensor_id;sensor_type;location;lat;lon;timestamp;P1;durP1;ratioP1;P2;durP2;ratioP2
4650;SDS011;2338;49.602;8.722;2023-12-14T00:01:51;19.87;;;13.93;;
4650;SDS011;2338;49.602;8.722;2023-12-14T00:04:36;19.13;;;14.90;;
4650;SDS011;2338;49.602;8.722;2023-12-14T00:07:22;19.67;;;15.60;;
4650;SDS011;2338;49.602;8.722;2023-12-14T00:10:07;18.83;;;14.83;;
4650;SDS011;2338;49.602;8.722;2023-12-14T00:12:53;16.50;;;13.80;;
4650;SDS011;2338;49.602;8.722;2023-12-14T00:15:39;24.40;;;16.03;;
4650;SDS011;2338;49.602;8.722;2023-12-14T00:18:26;20.10;;;15.90;;
4650;SDS011;2338;49.602;8.722;2023-12-14T00:21:12;21.73;;;15.80;;
4650;SDS011;2338;49.602;8.722;2023-12-14T00:23:57;22.30;;;15.80;;
4650;SDS011;2338;49.602;8.722;2023-12-14T00:26:43;18.60;;;15.60;;
4650;SDS011;2338;49.602;8.722;2023-12-14T00:29:29;24.93;;;17.00;;
4650;SDS011;2338;49.602;8.722;2023-12-14T00:32:15;27.43;;;16.77;;
4650;SDS011;2338;49.602;8.722;2023-12-14T00:35:02;25.23;;;16.37;;
4650;SDS011;2338;49.602;8.722;2023-12-14T00:37:48;19.70;;;14.97;;
4650;SDS011;2338;49.602;8.722;2023-12-14T00:40:33;28.47;;;16.07;;
4650;SDS011;2338;49.602;8.722;2023-12-14T00:43:19;29.27;;;17.33;;
4650;SDS011;2338;49.602;8.722;2023-12-14T00:46:04;24.47;;;16.27;;
4650;SDS011;2338;49.602;8.722;2023-12-14T00:48:50;27.43;;;17.30;;
4650;SDS011;2338;49.602;8.722;2023-12-14T00:51:37;23.37;;;17.33;;
4650;SDS011;2338;49.602;8.722;2023-12-14T00:54:24;23.90;;;16.50;;
4650;SDS011;2338;49.602;8.722;2023-12-14T00:57:09;18.90;;;15.77;;
4650;SDS011;2338;49.602;8.722;2023-12-14T00:59:55;23.97;;;16.03;;
4650;SDS011;2338;49.602;8.722;2023-12-14T01:02:40;20.10;;;16.60;;
4650;SDS011;2338;49.602;8.722;2023-12-14T01:05:26;18.23;;;14.70;;
4650;SDS011;2338;49.602;8.722;2023-12-14T01:08:13;22.27;;;15.90;;
4650;SDS011;2338;49.602;8.722;2023-12-14T01:10:59;20.63;;;13.90;;
4650;SDS011;2338;49.602;8.722;2023-12-14T01:13:45;20.20;;;14.13;;
4650;SDS011;2338;49.602;8.722;2023-12-14T01:16:30;20.20;;;15.20;;
4650;SDS011;2338;49.602;8.722;2023-12-14T01:19:16;19.00;;;14.77;;
4650;SDS011;2338;49.602;8.722;2023-12-14T01:22:02;23.17;;;15.83;;
4650;SDS011;2338;49.602;8.722;2023-12-14T01:24:49;24.10;;;16.43;;
4650;SDS011;2338;49.602;8.722;2023-12-14T01:27:34;21.00;;;15.00;;
4650;SDS011;2338;49.602;8.722;2023-12-14T01:30:20;24.27;;;16.30;;
4650;SDS011;2338;49.602;8.722;2023-12-14T01:33:05;19.47;;;16.20;;
4650;SDS011;2338;49.602;8.722;2023-12-14T01:35:51;22.80;;;16.70;;
4650;SDS011;2338;49.602;8.722;2023-12-14T01:38:37;22.03;;;16.47;;
4650;SDS011;2338;49.602;8.722;2023-12-14T01:41:24;22.23;;;15.60;;
4650;SDS011;2338;49.602;8.722;2023-12-14T01:44:09;28.57;;;15.93;;
4650;SDS011;2338;49.602;8.722;2023-12-14T01:46:55;24.10;;;16.53;;
4650;SDS011;2338;49.602;8.722;2023-12-14T01:49:40;23.13;;;16.10;;
4650;SDS011;2338;49.602;8.722;2023-12-14T01:52:26;24.40;;;14.80;;
4650;SDS011;2338;49.602;8.722;2023-12-14T01:55:12;22.50;;;16.73;;
4650;SDS011;2338;49.602;8.722;2023-12-14T01:57:59;16.77;;;14.93;;
4650;SDS011;2338;49.602;8.722;2023-12-14T02:00:46;22.27;;;16.37;;
4650;SDS011;2338;49.602;8.722;2023-12-14T02:03:35;22.60;;;15.23;;
4650;SDS011;2338;49.602;8.722;2023-12-14T02:06:21;22.73;;;17.10;;
4650;SDS011;2338;49.602;8.722;2023-12-14T02:09:06;22.63;;;18.00;;
4650;SDS011;2338;49.602;8.722;2023-12-14T02:11:52;18.93;;;15.37;;
4650;SDS011;2338;49.602;8.722;2023-12-14T02:14:39;20.20;;;16.00;;
4650;SDS011;2338;49.602;8.722;2023-12-14T02:17:25;24.30;;;16.07;;
4650;SDS011;2338;49.602;8.722;2023-12-14T02:20:10;15.97;;;14.37;;
4650;SDS011;2338;49.602;8.722;2023-12-14T02:22:57;21.27;;;15.03;;
4650;SDS011;2338;49.602;8.722;2023-12-14T02:25:43;20.17;;;15.77;;
4650;SDS011;2338;49.602;8.722;2023-12-14T02:28:28;23.97;;;17.00;;
4650;SDS011;2338;49.602;8.722;2023-12-14T02:31:14;22.03;;;17.10;;
4650;SDS011;2338;49.602;8.722;2023-12-14T02:34:00;22.07;;;16.93;;
4650;SDS011;2338;49.602;8.722;2023-12-14T02:36:46;22.03;;;16.23;;
4650;SDS011;2338;49.602;8.722;2023-12-14T02:39:33;23.00;;;15.80;;
4650;SDS011;2338;49.602;8.722;2023-12-14T02:42:18;19.83;;;16.10;;
4650;SDS011;2338;49.602;8.722;2023-12-14T02:45:04;22.47;;;15.93;;
4650;SDS011;2338;49.602;8.722;2023-12-14T02:47:52;20.60;;;17.17;;
4650;SDS011;2338;49.602;8.722;2023-12-14T02:50:38;20.93;;;16.87;;
4650;SDS011;2338;49.602;8.722;2023-12-14T02:53:23;28.03;;;17.10;;
4650;SDS011;2338;49.602;8.722;2023-12-14T02:56:10;21.53;;;16.33;;
4650;SDS011;2338;49.602;8.722;2023-12-14T02:58:56;19.97;;;15.10;;
4650;SDS011;2338;49.602;8.722;2023-12-14T03:01:42;18.70;;;16.00;;
4650;SDS011;2338;49.602;8.722;2023-12-14T03:04:27;20.43;;;16.00;;
4650;SDS011;2338;49.602;8.722;2023-12-14T03:07:13;20.17;;;15.33;;
4650;SDS011;2338;49.602;8.722;2023-12-14T03:09:59;19.97;;;15.00;;
4650;SDS011;2338;49.602;8.722;2023-12-14T03:12:46;19.27;;;15.60;;
4650;SDS011;2338;49.602;8.722;2023-12-14T03:15:31;19.30;;;16.13;;
4650;SDS011;2338;49.602;8.722;2023-12-14T03:18:17;19.03;;;15.83;;
4650;SDS011;2338;49.602;8.722;2023-12-14T03:21:03;17.93;;;14.63;;
4650;SDS011;2338;49.602;8.722;2023-12-14T03:23:49;18.83;;;15.00;;
4650;SDS011;2338;49.602;8.722;2023-12-14T03:26:34;22.23;;;15.67;;
4650;SDS011;2338;49.602;8.722;2023-12-14T03:29:22;25.77;;;15.47;;
4650;SDS011;2338;49.602;8.722;2023-12-14T03:32:07;21.60;;;15.50;;
4650;SDS011;2338;49.602;8.722;2023-12-14T03:34:53;24.27;;;16.47;;
4650;SDS011;2338;49.602;8.722;2023-12-14T03:37:39;17.90;;;14.50;;
4650;SDS011;2338;49.602;8.722;2023-12-14T03:40:25;20.80;;;16.27;;
4650;SDS011;2338;49.602;8.722;2023-12-14T03:43:10;18.53;;;15.43;;
4650;SDS011;2338;49.602;8.722;2023-12-14T03:45:57;18.90;;;15.80;;
4650;SDS011;2338;49.602;8.722;2023-12-14T03:48:43;19.57;;;14.87;;
4650;SDS011;2338;49.602;8.722;2023-12-14T03:51:28;23.93;;;16.40;;
4650;SDS011;2338;49.602;8.722;2023-12-14T03:54:14;19.03;;;15.10;;
4650;SDS011;2338;49.602;8.722;2023-12-14T03:57:00;21.97;;;16.40;;
4650;SDS011;2338;49.602;8.722;2023-12-14T03:59:45;20.07;;;14.80;;
4650;SDS011;2338;49.602;8.722;2023-12-14T04:02:32;18.90;;;14.87;;
4650;SDS011;2338;49.602;8.722;2023-12-14T04:05:17;22.53;;;14.70;;
4650;SDS011;2338;49.602;8.722;2023-12-14T04:08:03;20.53;;;16.10;;
4650;SDS011;2338;49.602;8.722;2023-12-14T04:10:49;19.30;;;14.50;;
4650;SDS011;2338;49.602;8.722;2023-12-14T04:13:35;18.30;;;15.17;;
4650;SDS011;2338;49.602;8.722;2023-12-14T04:16:20;20.80;;;16.40;;
4650;SDS011;2338;49.602;8.722;2023-12-14T04:19:07;20.77;;;14.50;;
4650;SDS011;2338;49.602;8.722;2023-12-14T04:21:53;22.10;;;15.87;;
4650;SDS011;2338;49.602;8.722;2023-12-14T04:24:39;19.50;;;15.10;;
4650;SDS011;2338;49.602;8.722;2023-12-14T04:27:25;21.00;;;15.53;;
4650;SDS011;2338;49.602;8.722;2023-12-14T04:30:12;21.40;;;15.17;;
4650;SDS011;2338;49.602;8.722;2023-12-14T04:32:57;20.47;;;16.00;;
4650;SDS011;2338;49.602;8.722;2023-12-14T04:35:44;21.70;;;14.70;;
4650;SDS011;2338;49.602;8.722;2023-12-14T04:38:30;22.47;;;16.10;;
4650;SDS011;2338;49.602;8.722;2023-12-14T04:41:16;28.33;;;15.83;;
4650;SDS011;2338;49.602;8.722;2023-12-14T04:44:01;19.93;;;15.40;;
4650;SDS011;2338;49.602;8.722;2023-12-14T04:46:47;18.93;;;14.40;;
4650;SDS011;2338;49.602;8.722;2023-12-14T04:49:33;18.50;;;15.47;;
4650;SDS011;2338;49.602;8.722;2023-12-14T04:52:20;24.13;;;15.30;;
4650;SDS011;2338;49.602;8.722;2023-12-14T04:55:06;22.07;;;15.17;;
4650;SDS011;2338;49.602;8.722;2023-12-14T04:57:52;24.13;;;16.03;;
4650;SDS011;2338;49.602;8.722;2023-12-14T05:00:38;23.47;;;15.70;;
4650;SDS011;2338;49.602;8.722;2023-12-14T05:03:23;24.77;;;16.77;;
4650;SDS011;2338;49.602;8.722;2023-12-14T05:06:09;21.43;;;15.83;;
4650;SDS011;2338;49.602;8.722;2023-12-14T05:08:56;23.00;;;17.00;;
4650;SDS011;2338;49.602;8.722;2023-12-14T05:11:42;24.90;;;18.23;;
4650;SDS011;2338;49.602;8.722;2023-12-14T05:14:28;24.07;;;16.53;;
4650;SDS011;2338;49.602;8.722;2023-12-14T05:17:14;25.87;;;18.10;;
4650;SDS011;2338;49.602;8.722;2023-12-14T05:19:59;26.07;;;17.50;;
4650;SDS011;2338;49.602;8.722;2023-12-14T05:22:45;23.30;;;16.10;;
4650;SDS011;2338;49.602;8.722;2023-12-14T05:25:32;19.97;;;15.83;;
4650;SDS011;2338;49.602;8.722;2023-12-14T05:28:18;19.23;;;14.97;;
4650;SDS011;2338;49.602;8.722;2023-12-14T05:31:04;27.47;;;16.27;;
4650;SDS011;2338;49.602;8.722;2023-12-14T05:33:49;26.50;;;17.30;;
4650;SDS011;2338;49.602;8.722;2023-12-14T05:36:35;21.97;;;16.23;;
4650;SDS011;2338;49.602;8.722;2023-12-14T05:39:21;26.90;;;18.60;;
4650;SDS011;2338;49.602;8.722;2023-12-14T05:42:08;23.30;;;16.80;;
4650;SDS011;2338;49.602;8.722;2023-12-14T05:44:53;26.17;;;16.93;;
4650;SDS011;2338;49.602;8.722;2023-12-14T05:47:39;26.60;;;17.40;;
4650;SDS011;2338;49.602;8.722;2023-12-14T05:50:25;28.87;;;19.23;;
4650;SDS011;2338;49.602;8.722;2023-12-14T05:53:11;24.80;;;17.40;;
4650;SDS011;2338;49.602;8.722;2023-12-14T05:55:57;30.60;;;19.30;;
4650;SDS011;2338;49.602;8.722;2023-12-14T05:58:44;29.90;;;19.37;;
4650;SDS011;2338;49.602;8.722;2023-12-14T06:01:30;28.67;;;19.03;;
4650;SDS011;2338;49.602;8.722;2023-12-14T06:04:15;29.93;;;19.87;;
4650;SDS011;2338;49.602;8.722;2023-12-14T06:07:01;24.60;;;17.00;;
4650;SDS011;2338;49.602;8.722;2023-12-14T06:09:47;26.97;;;19.50;;
4650;SDS011;2338;49.602;8.722;2023-12-14T06:12:33;29.47;;;18.60;;
4650;SDS011;2338;49.602;8.722;2023-12-14T06:15:20;24.27;;;17.70;;
4650;SDS011;2338;49.602;8.722;2023-12-14T06:18:05;30.27;;;17.30;;
4650;SDS011;2338;49.602;8.722;2023-12-14T06:20:51;24.97;;;19.03;;
4650;SDS011;2338;49.602;8.722;2023-12-14T06:23:36;24.53;;;17.27;;
4650;SDS011;2338;49.602;8.722;2023-12-14T06:26:22;24.33;;;16.87;;
4650;SDS011;2338;49.602;8.722;2023-12-14T06:29:08;22.60;;;17.60;;
4650;SDS011;2338;49.602;8.722;2023-12-14T06:31:55;26.77;;;18.10;;
4650;SDS011;2338;49.602;8.722;2023-12-14T06:34:41;25.37;;;20.70;;
4650;SDS011;2338;49.602;8.722;2023-12-14T06:37:27;24.67;;;19.73;;
4650;SDS011;2338;49.602;8.722;2023-12-14T06:40:12;29.53;;;18.73;;
4650;SDS011;2338;49.602;8.722;2023-12-14T06:42:58;32.10;;;21.90;;
4650;SDS011;2338;49.602;8.722;2023-12-14T06:45:44;27.90;;;19.70;;
4650;SDS011;2338;49.602;8.722;2023-12-14T06:48:31;30.03;;;21.33;;
4650;SDS011;2338;49.602;8.722;2023-12-14T06:51:16;27.83;;;19.40;;
4650;SDS011;2338;49.602;8.722;2023-12-14T06:54:02;29.97;;;21.03;;
4650;SDS011;2338;49.602;8.722;2023-12-14T06:56:48;29.27;;;21.13;;
4650;SDS011;2338;49.602;8.722;2023-12-14T06:59:33;27.70;;;20.00;;
4650;SDS011;2338;49.602;8.722;2023-12-14T07:02:19;32.13;;;20.00;;
4650;SDS011;2338;49.602;8.722;2023-12-14T07:05:07;29.23;;;21.77;;
4650;SDS011;2338;49.602;8.722;2023-12-14T07:07:53;32.70;;;21.50;;
4650;SDS011;2338;49.602;8.722;2023-12-14T07:10:40;28.30;;;21.47;;
4650;SDS011;2338;49.602;8.722;2023-12-14T07:13:26;29.23;;;21.70;;
4650;SDS011;2338;49.602;8.722;2023-12-14T07:16:12;30.60;;;19.70;;
4650;SDS011;2338;49.602;8.722;2023-12-14T07:19:01;33.00;;;19.87;;
4650;SDS011;2338;49.602;8.722;2023-12-14T07:21:49;30.53;;;21.10;;
4650;SDS011;2338;49.602;8.722;2023-12-14T07:24:35;28.17;;;19.00;;
4650;SDS011;2338;49.602;8.722;2023-12-14T07:27:20;32.60;;;19.27;;
4650;SDS011;2338;49.602;8.722;2023-12-14T07:30:06;27.47;;;18.50;;
4650;SDS011;2338;49.602;8.722;2023-12-14T07:32:53;29.80;;;18.33;;
4650;SDS011;2338;49.602;8.722;2023-12-14T07:35:38;30.40;;;20.07;;
4650;SDS011;2338;49.602;8.722;2023-12-14T07:38:26;29.77;;;18.43;;
4650;SDS011;2338;49.602;8.722;2023-12-14T07:41:11;29.17;;;17.83;;
4650;SDS011;2338;49.602;8.722;2023-12-14T07:43:57;25.70;;;18.23;;
4650;SDS011;2338;49.602;8.722;2023-12-14T07:46:43;30.83;;;17.77;;
4650;SDS011;2338;49.602;8.722;2023-12-14T07:49:28;32.10;;;19.70;;
4650;SDS011;2338;49.602;8.722;2023-12-14T07:52:14;27.47;;;19.47;;
4650;SDS011;2338;49.602;8.722;2023-12-14T07:55:01;29.47;;;19.30;;
4650;SDS011;2338;49.602;8.722;2023-12-14T07:57:47;29.67;;;19.03;;
4650;SDS011;2338;49.602;8.722;2023-12-14T08:00:33;27.90;;;18.80;;
4650;SDS011;2338;49.602;8.722;2023-12-14T08:03:19;30.20;;;20.30;;
4650;SDS011;2338;49.602;8.722;2023-12-14T08:06:05;26.10;;;19.23;;
4650;SDS011;2338;49.602;8.722;2023-12-14T08:08:51;39.13;;;21.00;;
4650;SDS011;2338;49.602;8.722;2023-12-14T08:11:38;33.80;;;21.23;;
4650;SDS011;2338;49.602;8.722;2023-12-14T08:14:24;27.60;;;18.70;;
4650;SDS011;2338;49.602;8.722;2023-12-14T08:17:10;26.00;;;19.47;;
4650;SDS011;2338;49.602;8.722;2023-12-14T08:19:55;26.47;;;18.67;;
4650;SDS011;2338;49.602;8.722;2023-12-14T08:22:41;31.07;;;19.77;;
4650;SDS011;2338;49.602;8.722;2023-12-14T08:25:28;28.77;;;20.57;;
4650;SDS011;2338;49.602;8.722;2023-12-14T08:28:15;32.10;;;22.43;;
4650;SDS011;2338;49.602;8.722;2023-12-14T08:31:00;42.50;;;25.50;;
4650;SDS011;2338;49.602;8.722;2023-12-14T08:33:46;46.30;;;24.50;;
4650;SDS011;2338;49.602;8.722;2023-12-14T08:36:32;39.00;;;25.33;;
4650;SDS011;2338;49.602;8.722;2023-12-14T08:39:18;38.20;;;27.27;;
4650;SDS011;2338;49.602;8.722;2023-12-14T08:42:04;45.73;;;26.90;;
4650;SDS011;2338;49.602;8.722;2023-12-14T08:44:51;37.47;;;23.10;;
4650;SDS011;2338;49.602;8.722;2023-12-14T08:47:36;39.10;;;24.20;;
4650;SDS011;2338;49.602;8.722;2023-12-14T08:50:22;43.07;;;23.67;;
4650;SDS011;2338;49.602;8.722;2023-12-14T08:53:10;34.63;;;23.23;;
4650;SDS011;2338;49.602;8.722;2023-12-14T08:55:55;39.50;;;23.40;;
4650;SDS011;2338;49.602;8.722;2023-12-14T08:58:41;33.90;;;21.23;;
4650;SDS011;2338;49.602;8.722;2023-12-14T09:01:28;27.37;;;19.40;;
4650;SDS011;2338;49.602;8.722;2023-12-14T09:04:13;28.47;;;20.13;;
4650;SDS011;2338;49.602;8.722;2023-12-14T09:06:59;32.13;;;21.07;;
4650;SDS011;2338;49.602;8.722;2023-12-14T09:09:45;36.53;;;20.60;;
4650;SDS011;2338;49.602;8.722;2023-12-14T09:12:30;30.33;;;19.37;;
4650;SDS011;2338;49.602;8.722;2023-12-14T09:15:16;27.07;;;18.20;;
4650;SDS011;2338;49.602;8.722;2023-12-14T09:18:03;30.80;;;18.77;;
4650;SDS011;2338;49.602;8.722;2023-12-14T09:20:49;29.50;;;19.30;;
4650;SDS011;2338;49.602;8.722;2023-12-14T09:23:34;22.40;;;15.97;;
4650;SDS011;2338;49.602;8.722;2023-12-14T09:26:20;27.43;;;17.83;;
4650;SDS011;2338;49.602;8.722;2023-12-14T09:29:06;22.70;;;13.80;;
4650;SDS011;2338;49.602;8.722;2023-12-14T09:31:51;23.47;;;15.23;;
4650;SDS011;2338;49.602;8.722;2023-12-14T09:34:39;22.03;;;11.63;;
4650;SDS011;2338;49.602;8.722;2023-12-14T09:37:25;15.87;;;10.63;;
4650;SDS011;2338;49.602;8.722;2023-12-14T09:40:11;17.73;;;10.47;;
4650;SDS011;2338;49.602;8.722;2023-12-14T09:42:56;16.30;;;10.70;;
4650;SDS011;2338;49.602;8.722;2023-12-14T09:45:42;25.53;;;11.40;;
4650;SDS011;2338;49.602;8.722;2023-12-14T09:48:28;15.27;;;10.03;;
4650;SDS011;2338;49.602;8.722;2023-12-14T09:51:17;21.70;;;12.37;;
4650;SDS011;2338;49.602;8.722;2023-12-14T09:54:03;16.13;;;10.37;;
4650;SDS011;2338;49.602;8.722;2023-12-14T09:56:49;11.40;;;9.10;;
4650;SDS011;2338;49.602;8.722;2023-12-14T09:59:37;14.93;;;10.70;;
4650;SDS011;2338;49.602;8.722;2023-12-14T10:02:24;12.60;;;9.00;;
4650;SDS011;2338;49.602;8.722;2023-12-14T10:05:11;24.43;;;10.50;;
4650;SDS011;2338;49.602;8.722;2023-12-14T10:07:58;16.07;;;10.20;;
4650;SDS011;2338;49.602;8.722;2023-12-14T10:10:44;18.30;;;11.57;;
4650;SDS011;2338;49.602;8.722;2023-12-14T10:13:36;16.33;;;10.70;;
4650;SDS011;2338;49.602;8.722;2023-12-14T10:16:28;16.57;;;10.50;;
4650;SDS011;2338;49.602;8.722;2023-12-14T10:19:16;15.63;;;11.07;;
4650;SDS011;2338;49.602;8.722;2023-12-14T10:22:02;17.83;;;12.20;;
4650;SDS011;2338;49.602;8.722;2023-12-14T10:24:49;17.30;;;12.27;;
4650;SDS011;2338;49.602;8.722;2023-12-14T10:27:37;21.77;;;13.00;;
4650;SDS011;2338;49.602;8.722;2023-12-14T10:30:22;18.20;;;12.90;;
4650;SDS011;2338;49.602;8.722;2023-12-14T10:33:08;14.70;;;11.13;;
4650;SDS011;2338;49.602;8.722;2023-12-14T10:35:54;21.37;;;12.67;;
4650;SDS011;2338;49.602;8.722;2023-12-14T10:38:40;18.60;;;12.50;;
4650;SDS011;2338;49.602;8.722;2023-12-14T10:41:30;21.10;;;12.90;;
4650;SDS011;2338;49.602;8.722;2023-12-14T10:44:18;20.13;;;13.00;;
4650;SDS011;2338;49.602;8.722;2023-12-14T10:47:04;21.70;;;13.27;;
4650;SDS011;2338;49.602;8.722;2023-12-14T10:49:52;19.73;;;14.30;;
4650;SDS011;2338;49.602;8.722;2023-12-14T10:52:39;17.03;;;11.90;;
4650;SDS011;2338;49.602;8.722;2023-12-14T10:55:27;18.57;;;13.33;;
4650;SDS011;2338;49.602;8.722;2023-12-14T10:58:19;17.30;;;11.70;;
4650;SDS011;2338;49.602;8.722;2023-12-14T11:01:05;21.10;;;13.77;;
4650;SDS011;2338;49.602;8.722;2023-12-14T11:03:53;20.20;;;12.13;;
4650;SDS011;2338;49.602;8.722;2023-12-14T11:06:40;18.80;;;11.63;;
4650;SDS011;2338;49.602;8.722;2023-12-14T11:09:31;22.27;;;12.50;;
4650;SDS011;2338;49.602;8.722;2023-12-14T11:12:19;15.50;;;12.40;;
4650;SDS011;2338;49.602;8.722;2023-12-14T11:15:08;15.47;;;11.33;;
4650;SDS011;2338;49.602;8.722;2023-12-14T11:21:05;20.70;;;14.40;;
4650;SDS011;2338;49.602;8.722;2023-12-14T11:23:52;21.17;;;14.47;;
4650;SDS011;2338;49.602;8.722;2023-12-14T11:26:37;20.13;;;14.13;;
4650;SDS011;2338;49.602;8.722;2023-12-14T11:29:23;19.63;;;12.83;;
4650;SDS011;2338;49.602;8.722;2023-12-14T11:32:10;20.63;;;13.40;;
4650;SDS011;2338;49.602;8.722;2023-12-14T11:34:56;17.60;;;12.50;;
4650;SDS011;2338;49.602;8.722;2023-12-14T11:37:41;19.27;;;12.40;;
4650;SDS011;2338;49.602;8.722;2023-12-14T11:40:27;19.63;;;13.37;;
4650;SDS011;2338;49.602;8.722;2023-12-14T11:43:14;23.57;;;13.20;;
4650;SDS011;2338;49.602;8.722;2023-12-14T11:45:59;24.57;;;14.93;;
4650;SDS011;2338;49.602;8.722;2023-12-14T11:48:46;21.67;;;16.17;;
4650;SDS011;2338;49.602;8.722;2023-12-14T11:51:33;20.47;;;14.47;;
4650;SDS011;2338;49.602;8.722;2023-12-14T11:54:18;21.57;;;14.53;;
4650;SDS011;2338;49.602;8.722;2023-12-14T11:57:04;20.13;;;14.10;;
4650;SDS011;2338;49.602;8.722;2023-12-14T11:59:52;29.57;;;14.50;;
4650;SDS011;2338;49.602;8.722;2023-12-14T12:02:38;21.60;;;14.57;;
4650;SDS011;2338;49.602;8.722;2023-12-14T12:05:36;20.17;;;14.10;;
4650;SDS011;2338;49.602;8.722;2023-12-14T12:08:21;25.60;;;14.30;;
4650;SDS011;2338;49.602;8.722;2023-12-14T12:11:07;18.00;;;12.67;;
4650;SDS011;2338;49.602;8.722;2023-12-14T12:13:53;17.20;;;11.70;;
4650;SDS011;2338;49.602;8.722;2023-12-14T12:16:39;21.63;;;11.93;;
4650;SDS011;2338;49.602;8.722;2023-12-14T12:19:25;17.60;;;12.17;;
4650;SDS011;2338;49.602;8.722;2023-12-14T12:22:12;23.07;;;13.70;;
4650;SDS011;2338;49.602;8.722;2023-12-14T12:24:58;16.07;;;12.33;;
4650;SDS011;2338;49.602;8.722;2023-12-14T12:27:44;24.13;;;12.07;;
4650;SDS011;2338;49.602;8.722;2023-12-14T12:30:31;19.37;;;11.00;;
4650;SDS011;2338;49.602;8.722;2023-12-14T12:33:17;18.70;;;10.90;;
4650;SDS011;2338;49.602;8.722;2023-12-14T12:36:04;14.80;;;10.40;;
4650;SDS011;2338;49.602;8.722;2023-12-14T12:38:52;13.33;;;9.67;;
4650;SDS011;2338;49.602;8.722;2023-12-14T12:41:37;12.50;;;9.40;;
4650;SDS011;2338;49.602;8.722;2023-12-14T12:44:23;11.70;;;8.80;;
4650;SDS011;2338;49.602;8.722;2023-12-14T12:47:09;13.43;;;9.37;;
4650;SDS011;2338;49.602;8.722;2023-12-14T12:49:55;10.00;;;7.70;;
4650;SDS011;2338;49.602;8.722;2023-12-14T12:52:40;12.37;;;8.73;;
4650;SDS011;2338;49.602;8.722;2023-12-14T12:55:28;10.40;;;7.43;;
4650;SDS011;2338;49.602;8.722;2023-12-14T12:58:14;10.90;;;8.07;;
4650;SDS011;2338;49.602;8.722;2023-12-14T13:01:00;13.87;;;8.27;;
4650;SDS011;2338;49.602;8.722;2023-12-14T13:03:45;11.30;;;7.23;;
4650;SDS011;2338;49.602;8.722;2023-12-14T13:06:31;11.53;;;7.33;;
4650;SDS011;2338;49.602;8.722;2023-12-14T13:09:17;9.30;;;6.60;;
4650;SDS011;2338;49.602;8.722;2023-12-14T13:12:05;7.67;;;6.10;;
4650;SDS011;2338;49.602;8.722;2023-12-14T13:14:51;13.67;;;7.80;;
4650;SDS011;2338;49.602;8.722;2023-12-14T13:17:38;11.50;;;7.83;;
4650;SDS011;2338;49.602;8.722;2023-12-14T13:20:23;9.40;;;6.97;;
4650;SDS011;2338;49.602;8.722;2023-12-14T13:23:09;10.30;;;6.80;;
4650;SDS011;2338;49.602;8.722;2023-12-14T13:25:55;10.00;;;7.10;;
4650;SDS011;2338;49.602;8.722;2023-12-14T13:28:42;10.93;;;7.47;;
4650;SDS011;2338;49.602;8.722;2023-12-14T13:31:27;11.53;;;7.67;;
4650;SDS011;2338;49.602;8.722;2023-12-14T13:34:13;8.73;;;6.20;;
4650;SDS011;2338;49.602;8.722;2023-12-14T13:36:58;12.20;;;7.50;;
4650;SDS011;2338;49.602;8.722;2023-12-14T13:39:44;8.90;;;6.80;;
4650;SDS011;2338;49.602;8.722;2023-12-14T13:42:31;14.50;;;6.63;;
4650;SDS011;2338;49.602;8.722;2023-12-14T13:45:18;10.33;;;7.43;;
4650;SDS011;2338;49.602;8.722;2023-12-14T13:48:04;10.90;;;6.60;;
4650;SDS011;2338;49.602;8.722;2023-12-14T13:50:50;9.80;;;6.80;;
4650;SDS011;2338;49.602;8.722;2023-12-14T13:53:36;11.50;;;6.87;;
4650;SDS011;2338;49.602;8.722;2023-12-14T13:56:22;9.23;;;6.80;;
4650;SDS011;2338;49.602;8.722;2023-12-14T13:59:08;7.80;;;6.20;;
4650;SDS011;2338;49.602;8.722;2023-12-14T14:01:56;8.80;;;5.90;;
4650;SDS011;2338;49.602;8.722;2023-12-14T14:04:41;9.17;;;6.90;;
4650;SDS011;2338;49.602;8.722;2023-12-14T14:07:27;11.87;;;7.80;;
4650;SDS011;2338;49.602;8.722;2023-12-14T14:10:12;10.60;;;6.03;;
4650;SDS011;2338;49.602;8.722;2023-12-14T14:12:58;8.60;;;5.83;;
4650;SDS011;2338;49.602;8.722;2023-12-14T14:15:44;10.83;;;6.87;;
4650;SDS011;2338;49.602;8.722;2023-12-14T14:18:31;9.60;;;6.93;;
4650;SDS011;2338;49.602;8.722;2023-12-14T14:21:17;10.80;;;7.20;;
4650;SDS011;2338;49.602;8.722;2023-12-14T14:24:03;8.33;;;6.23;;
4650;SDS011;2338;49.602;8.722;2023-12-14T14:26:49;11.40;;;7.90;;
4650;SDS011;2338;49.602;8.722;2023-12-14T14:29:35;10.17;;;6.07;;
4650;SDS011;2338;49.602;8.722;2023-12-14T14:32:21;10.27;;;7.03;;
4650;SDS011;2338;49.602;8.722;2023-12-14T14:35:08;7.37;;;6.10;;
4650;SDS011;2338;49.602;8.722;2023-12-14T14:37:54;7.70;;;6.27;;
4650;SDS011;2338;49.602;8.722;2023-12-14T14:40:40;11.30;;;8.27;;
4650;SDS011;2338;49.602;8.722;2023-12-14T14:43:27;12.13;;;8.30;;
4650;SDS011;2338;49.602;8.722;2023-12-14T14:46:13;13.17;;;8.20;;
4650;SDS011;2338;49.602;8.722;2023-12-14T14:48:58;12.13;;;8.03;;
4650;SDS011;2338;49.602;8.722;2023-12-14T14:51:47;14.07;;;8.77;;
4650;SDS011;2338;49.602;8.722;2023-12-14T14:54:32;12.77;;;7.93;;
4650;SDS011;2338;49.602;8.722;2023-12-14T14:57:18;11.90;;;7.60;;
4650;SDS011;2338;49.602;8.722;2023-12-14T15:00:04;10.77;;;7.57;;
4650;SDS011;2338;49.602;8.722;2023-12-14T15:02:51;14.73;;;8.27;;
4650;SDS011;2338;49.602;8.722;2023-12-14T15:05:36;15.33;;;7.70;;
4650;SDS011;2338;49.602;8.722;2023-12-14T15:08:23;14.50;;;8.83;;
4650;SDS011;2338;49.602;8.722;2023-12-14T15:11:08;13.33;;;8.47;;
4650;SDS011;2338;49.602;8.722;2023-12-14T15:13:54;15.53;;;7.87;;
4650;SDS011;2338;49.602;8.722;2023-12-14T15:16:40;11.03;;;7.13;;
4650;SDS011;2338;49.602;8.722;2023-12-14T15:19:26;10.20;;;6.70;;
4650;SDS011;2338;49.602;8.722;2023-12-14T15:22:11;12.60;;;8.00;;
4650;SDS011;2338;49.602;8.722;2023-12-14T15:24:59;11.57;;;8.03;;
4650;SDS011;2338;49.602;8.722;2023-12-14T15:27:44;12.47;;;7.60;;
4650;SDS011;2338;49.602;8.722;2023-12-14T15:30:30;11.20;;;7.63;;
4650;SDS011;2338;49.602;8.722;2023-12-14T15:33:15;12.40;;;7.70;;
4650;SDS011;2338;49.602;8.722;2023-12-14T15:36:01;19.07;;;8.40;;
4650;SDS011;2338;49.602;8.722;2023-12-14T15:38:47;10.90;;;7.10;;
4650;SDS011;2338;49.602;8.722;2023-12-14T15:41:34;12.40;;;7.60;;
4650;SDS011;2338;49.602;8.722;2023-12-14T15:44:19;13.27;;;7.30;;
4650;SDS011;2338;49.602;8.722;2023-12-14T15:47:05;10.53;;;6.33;;
4650;SDS011;2338;49.602;8.722;2023-12-14T15:49:51;9.23;;;6.27;;
4650;SDS011;2338;49.602;8.722;2023-12-14T15:52:37;11.37;;;7.23;;
4650;SDS011;2338;49.602;8.722;2023-12-14T15:55:22;11.83;;;7.57;;
4650;SDS011;2338;49.602;8.722;2023-12-14T15:58:09;12.00;;;7.40;;
4650;SDS011;2338;49.602;8.722;2023-12-14T16:00:55;10.80;;;6.60;;
4650;SDS011;2338;49.602;8.722;2023-12-14T16:03:41;10.97;;;7.33;;
4650;SDS011;2338;49.602;8.722;2023-12-14T16:06:28;10.33;;;6.63;;
4650;SDS011;2338;49.602;8.722;2023-12-14T16:09:13;10.20;;;6.53;;
4650;SDS011;2338;49.602;8.722;2023-12-14T16:11:59;9.53;;;6.73;;
4650;SDS011;2338;49.602;8.722;2023-12-14T16:14:49;9.70;;;6.70;;
4650;SDS011;2338;49.602;8.722;2023-12-14T16:17:34;10.83;;;7.13;;
4650;SDS011;2338;49.602;8.722;2023-12-14T16:20:20;12.40;;;6.63;;
4650;SDS011;2338;49.602;8.722;2023-12-14T16:23:07;9.10;;;6.10;;
4650;SDS011;2338;49.602;8.722;2023-12-14T16:25:53;10.47;;;7.00;;
4650;SDS011;2338;49.602;8.722;2023-12-14T16:28:41;8.33;;;6.00;;
4650;SDS011;2338;49.602;8.722;2023-12-14T16:31:29;11.03;;;6.63;;
4650;SDS011;2338;49.602;8.722;2023-12-14T16:34:15;8.23;;;5.77;;
4650;SDS011;2338;49.602;8.722;2023-12-14T16:37:00;11.47;;;6.83;;
4650;SDS011;2338;49.602;8.722;2023-12-14T16:39:47;10.27;;;6.80;;
4650;SDS011;2338;49.602;8.722;2023-12-14T16:42:32;13.97;;;6.07;;
4650;SDS011;2338;49.602;8.722;2023-12-14T16:45:18;9.27;;;5.10;;
4650;SDS011;2338;49.602;8.722;2023-12-14T16:48:05;9.97;;;6.23;;
4650;SDS011;2338;49.602;8.722;2023-12-14T16:50:51;12.47;;;7.20;;